MX-0025 weather

Río de Agua de Vida Airstrip
La Purísima, Baja California Sur, Mexico

Public forecast

Using degrees Celsius for public forecast. Weather courtesy of forecast.io.

METAR (pilot weather report)

Closest report is Loreto International Airport, 42.8 nm (79.3 km) ESE. Retrieved 2019/06/24 23:48 UTC (56 minutes ago):

MMLT 242348Z 15006KT 10SM SKC 35/20 A2973 RMK SLP068

TAF (pilot weather forecast)

Forecast is more than 6 hours old.

Closest forecast is Loreto International Airport, 42.8 nm (79.3 km) ESE. Retrieved 2019/06/24 18:13 UTC (7 hours ago):

TAF MMLT 241710Z 2418/2518 12006KT P6SM SKC FM250300 26005KT P6SM SKC